Time;durP1;ratioP1;P1;durP2;ratioP2;P2;SDS_P1;SDS_P2;PMS_P1;PMS_P2;Temp;Humidity;BMP_temperature;BMP_pressure;BME280_temperature;BME280_humidity;BME280_pressure;Samples;Min_cycle;Max_cycle;Signal;HPM_P1;HPM_P2
2023/01/22 00:00:03;;;;;;;8.37;7.23;;;;;;;-0.07;100.00;99730.06;6216286;23;20211;-78
2023/01/22 00:02:38;;;;;;;8.27;7.10;;;;;;;-0.22;100.00;99736.81;6217318;23;20650;-80
2023/01/22 00:05:05;;;;;;;8.43;7.03;;;;;;;-0.05;100.00;99743.09;6216317;23;20280;-79
2023/01/22 00:07:32;;;;;;;8.70;7.80;;;;;;;-0.17;100.00;99752.16;6216301;23;20225;-80
2023/01/22 00:09:58;;;;;;;8.57;7.67;;;;;;;-0.18;100.00;99743.44;6216440;23;20232;-80
2023/01/22 00:12:26;;;;;;;8.50;7.17;;;;;;;-0.13;100.00;99745.63;6215572;22;20228;-79
2023/01/22 00:14:52;;;;;;;8.00;7.20;;;;;;;-0.17;100.00;99744.25;6216322;23;20209;-78
2023/01/22 00:17:19;;;;;;;7.97;7.10;;;;;;;-0.10;100.00;99740.91;6215811;23;20235;-80
2023/01/22 00:19:45;;;;;;;7.43;6.70;;;;;;;-0.07;100.00;99745.88;6217985;23;20212;-79
2023/01/22 00:22:12;;;;;;;8.07;7.03;;;;;;;-0.21;100.00;99735.00;6215517;22;20208;-80
2023/01/22 00:24:39;;;;;;;8.70;7.13;;;;;;;-0.18;100.00;99739.97;6217495;22;20284;-80
2023/01/22 00:27:05;;;;;;;8.50;7.20;;;;;;;-0.16;100.00;99745.94;6217744;22;20212;-80
2023/01/22 00:29:32;;;;;;;8.07;7.10;;;;;;;-0.25;100.00;99741.56;6216913;22;20605;-80
2023/01/22 00:31:59;;;;;;;9.63;8.33;;;;;;;-0.27;100.00;99746.13;6240961;22;20308;-80
2023/01/22 00:34:26;;;;;;;10.03;7.63;;;;;;;-0.21;100.00;99741.09;6215678;23;20255;-79
2023/01/22 00:36:52;;;;;;;9.80;8.10;;;;;;;-0.23;100.00;99742.22;6217122;22;20229;-79
2023/01/22 00:39:21;;;;;;;8.90;7.83;;;;;;;-0.24;100.00;99737.94;6216751;23;20217;-79
2023/01/22 00:41:48;;;;;;;9.20;7.53;;;;;;;-0.25;100.00;99747.66;6217828;23;20209;-80
2023/01/22 00:44:15;;;;;;;9.20;7.90;;;;;;;-0.26;100.00;99747.78;6217174;22;20205;-80
2023/01/22 00:46:42;;;;;;;8.73;7.40;;;;;;;-0.17;100.00;99755.63;6216845;23;20220;-80
2023/01/22 00:49:09;;;;;;;9.00;7.97;;;;;;;-0.18;100.00;99748.69;6216903;23;20213;-80
2023/01/22 00:51:38;;;;;;;10.47;8.73;;;;;;;-0.12;100.00;99768.34;6217289;22;20209;-81
2023/01/22 00:54:05;;;;;;;9.90;8.07;;;;;;;-0.20;100.00;99761.19;6217293;22;20265;-80
2023/01/22 00:56:32;;;;;;;8.97;7.87;;;;;;;-0.25;100.00;99757.34;6216250;23;20631;-79
2023/01/22 00:58:59;;;;;;;10.17;8.27;;;;;;;-0.17;100.00;99768.78;6216837;23;20586;-81
2023/01/22 01:01:25;;;;;;;9.70;7.90;;;;;;;-0.22;100.00;99772.84;6216353;23;20242;-80
2023/01/22 01:03:52;;;;;;;9.63;7.87;;;;;;;-0.15;100.00;99782.66;6216367;23;20712;-80
2023/01/22 01:06:20;;;;;;;8.73;7.73;;;;;;;-0.17;100.00;99783.75;6217119;22;20232;-80
2023/01/22 01:08:47;;;;;;;8.87;7.97;;;;;;;-0.31;100.00;99774.56;6216312;23;20288;-79
2023/01/22 01:11:20;;;;;;;8.30;7.27;;;;;;;-0.34;100.00;99771.41;6216700;23;20209;-80
2023/01/22 01:13:48;;;;;;;9.23;8.07;;;;;;;-0.19;100.00;99776.03;6217526;22;20212;-80
2023/01/22 01:16:29;;;;;;;8.57;7.33;;;;;;;-0.26;100.00;99793.38;6190801;23;20205;-80
2023/01/22 01:19:04;;;;;;;8.57;6.93;;;;;;;-0.18;100.00;99790.00;6216078;23;20209;-80
2023/01/22 01:21:32;;;;;;;9.63;7.77;;;;;;;-0.29;100.00;99798.94;6217317;22;21237;-80
2023/01/22 01:23:59;;;;;;;9.87;7.70;;;;;;;-0.25;100.00;99800.31;6191739;23;20689;-79
2023/01/22 01:26:26;;;;;;;8.97;7.77;;;;;;;-0.19;100.00;99788.38;6215602;23;20223;-80
2023/01/22 01:28:54;;;;;;;9.57;8.50;;;;;;;-0.11;100.00;99781.38;6218056;22;20217;-80
2023/01/22 01:31:22;;;;;;;9.00;7.67;;;;;;;-0.12;100.00;99784.16;6215889;23;20210;-80
2023/01/22 01:33:49;;;;;;;9.20;7.60;;;;;;;-0.16;100.00;99786.25;6217676;22;20209;-80
2023/01/22 01:36:16;;;;;;;9.70;7.37;;;;;;;-0.21;100.00;99779.78;6216118;23;20209;-80
2023/01/22 01:38:53;;;;;;;8.80;7.80;;;;;;;-0.22;100.00;99776.31;6215864;23;20215;-79
2023/01/22 01:41:23;;;;;;;10.00;8.17;;;;;;;-0.17;100.00;99792.50;6190817;23;20205;-80
2023/01/22 01:44:28;;;;;;;9.43;8.00;;;;;;;-0.21;100.00;99801.66;6215884;23;20216;-80
2023/01/22 01:47:00;;;;;;;9.50;8.03;;;;;;;-0.18;100.00;99798.72;6071948;23;20207;-79
2023/01/22 01:49:37;;;;;;;10.20;8.50;;;;;;;-0.21;100.00;99771.88;6199981;22;20209;-80
2023/01/22 01:52:07;;;;;;;10.63;8.57;;;;;;;-0.23;100.00;99768.53;6216646;22;20216;-78
2023/01/22 01:54:34;;;;;;;9.33;8.20;;;;;;;-0.12;100.00;99770.97;6215611;23;20209;-79
2023/01/22 01:57:04;;;;;;;11.13;10.03;;;;;;;-0.12;100.00;99789.41;6214586;23;20458;-80
2023/01/22 01:59:32;;;;;;;9.87;8.87;;;;;;;-0.20;100.00;99805.13;6215059;23;20205;-79
2023/01/22 02:02:01;;;;;;;9.87;8.70;;;;;;;-0.16;100.00;99803.88;6215198;23;20650;-80
2023/01/22 02:04:28;;;;;;;11.33;9.47;;;;;;;-0.15;100.00;99792.34;6213336;23;20205;-80
2023/01/22 02:06:54;;;;;;;9.20;8.20;;;;;;;-0.12;100.00;99781.53;6215359;23;20280;-79
2023/01/22 02:09:21;;;;;;;9.73;8.73;;;;;;;-0.29;100.00;99769.16;6240388;22;20216;-79
2023/01/22 02:11:50;;;;;;;10.43;8.97;;;;;;;-0.14;100.00;99759.78;6215108;23;20240;-79
2023/01/22 02:14:23;;;;;;;10.60;8.87;;;;;;;-0.12;100.00;99757.81;6188984;22;20279;-80
2023/01/22 02:17:13;;;;;;;10.17;8.30;;;;;;;-0.18;100.00;99768.94;6214745;23;20275;-79
2023/01/22 02:19:41;;;;;;;9.97;8.53;;;;;;;-0.19;100.00;99767.31;6239123;22;20281;-80
2023/01/22 02:22:12;;;;;;;11.57;8.87;;;;;;;-0.04;100.00;99774.53;6215468;22;20208;-80
2023/01/22 02:24:38;;;;;;;10.67;9.47;;;;;;;-0.09;100.00;99774.16;6214509;23;20209;-79
2023/01/22 02:27:07;;;;;;;11.00;9.40;;;;;;;-0.07;100.00;99776.63;6214433;23;20296;-80
2023/01/22 02:29:33;;;;;;;13.00;9.77;;;;;;;-0.18;100.00;99782.94;6216272;23;20284;-79
2023/01/22 02:32:00;;;;;;;12.63;10.20;;;;;;;-0.19;100.00;99780.47;6191556;23;20206;-79
2023/01/22 02:34:27;;;;;;;10.00;8.53;;;;;;;-0.11;100.00;99784.00;6216090;23;20204;-78
2023/01/22 02:36:54;;;;;;;12.37;10.07;;;;;;;-0.19;100.00;99783.09;6215928;23;20209;-80
2023/01/22 02:39:21;;;;;;;11.53;9.30;;;;;;;-0.05;100.00;99780.75;6216728;23;20288;-79
2023/01/22 02:41:49;;;;;;;10.30;9.07;;;;;;;-0.07;100.00;99780.09;6216707;23;20255;-80
2023/01/22 02:44:16;;;;;;;11.87;9.40;;;;;;;-0.16;100.00;99785.44;6191138;22;20220;-79
2023/01/22 02:46:43;;;;;;;12.90;10.27;;;;;;;-0.17;100.00;99781.97;6241607;23;20205;-79
2023/01/22 02:49:10;;;;;;;12.20;10.20;;;;;;;-0.20;100.00;99779.63;6216764;23;20248;-80
2023/01/22 02:51:36;;;;;;;12.60;9.87;;;;;;;-0.11;100.00;99778.75;6215822;23;20237;-80
2023/01/22 02:54:03;;;;;;;13.23;10.57;;;;;;;-0.05;100.00;99779.97;6216159;22;20720;-79
2023/01/22 02:56:35;;;;;;;11.93;9.80;;;;;;;-0.14;100.00;99776.38;6215573;23;20631;-79
2023/01/22 02:59:02;;;;;;;12.97;10.13;;;;;;;-0.28;100.00;99763.72;6215260;23;20209;-79
2023/01/22 03:01:29;;;;;;;11.50;9.70;;;;;;;-0.23;100.00;99766.75;6190594;23;20205;-79
2023/01/22 03:04:00;;;;;;;13.87;10.80;;;;;;;-0.26;100.00;99768.84;6215146;23;20205;-79
2023/01/22 03:06:28;;;;;;;12.67;10.53;;;;;;;-0.19;100.00;99760.22;6190501;23;20205;-80
2023/01/22 03:08:59;;;;;;;12.13;10.60;;;;;;;-0.25;100.00;99759.97;6216690;23;20556;-81
2023/01/22 03:11:27;;;;;;;11.33;9.77;;;;;;;-0.18;100.00;99761.88;6191141;23;20662;-80
2023/01/22 03:22:17;;;;;;;12.33;10.30;;;;;;;-0.19;100.00;99767.31;6214703;22;20205;-81
2023/01/22 03:24:49;;;;;;;13.37;10.67;;;;;;;-0.17;100.00;99757.44;6214999;23;20227;-80
2023/01/22 03:27:20;;;;;;;14.27;10.57;;;;;;;-0.16;100.00;99752.03;6213909;23;20260;-79
2023/01/22 03:29:47;;;;;;;14.33;11.43;;;;;;;-0.21;100.00;99754.28;6215554;22;20659;-79
2023/01/22 03:32:15;;;;;;;13.33;10.23;;;;;;;-0.16;100.00;99754.66;6213638;22;20205;-79
2023/01/22 03:34:41;;;;;;;14.00;10.83;;;;;;;-0.25;100.00;99750.28;6213959;23;20210;-80
2023/01/22 03:37:11;;;;;;;16.03;11.27;;;;;;;-0.22;100.00;99764.94;6215749;23;20181;-80
2023/01/22 03:39:40;;;;;;;12.80;10.60;;;;;;;-0.20;100.00;99760.38;6191345;23;20690;-80
2023/01/22 03:42:08;;;;;;;13.23;10.90;;;;;;;-0.16;100.00;99764.34;6216389;22;20205;-80
2023/01/22 03:44:34;;;;;;;12.93;10.90;;;;;;;-0.35;100.00;99764.47;6214923;22;20213;-79
2023/01/22 03:47:01;;;;;;;14.27;11.30;;;;;;;-0.27;100.00;99757.47;6213111;23;20209;-79
2023/01/22 03:49:28;;;;;;;14.07;11.40;;;;;;;-0.27;100.00;99768.00;6188726;23;20209;-79
2023/01/22 03:51:55;;;;;;;13.87;11.03;;;;;;;-0.24;100.00;99759.00;6213531;23;20295;-79
2023/01/22 03:54:24;;;;;;;13.37;11.27;;;;;;;-0.25;100.00;99759.97;6212639;22;20205;-79
2023/01/22 03:56:53;;;;;;;14.57;11.13;;;;;;;-0.22;100.00;99763.13;6213912;23;20194;-80
2023/01/22 03:59:26;;;;;;;13.40;10.97;;;;;;;-0.16;100.00;99767.00;6215823;22;20209;-80
2023/01/22 04:01:53;;;;;;;13.00;10.63;;;;;;;-0.20;100.00;99763.84;6216540;22;20205;-80
2023/01/22 04:04:20;;;;;;;13.83;10.87;;;;;;;-0.25;100.00;99763.44;6214731;22;20673;-79
2023/01/22 04:06:47;;;;;;;13.20;10.77;;;;;;;-0.12;100.00;99765.72;6214711;23;20693;-81
2023/01/22 04:09:14;;;;;;;13.77;11.07;;;;;;;-0.17;100.00;99762.69;6215379;23;20280;-80
2023/01/22 04:11:47;;;;;;;13.87;11.70;;;;;;;-0.21;100.00;99761.34;6213879;23;20216;-80
2023/01/22 04:14:16;;;;;;;14.60;11.47;;;;;;;-0.21;100.00;99770.06;6214628;22;20206;-79
2023/01/22 04:16:52;;;;;;;14.13;11.53;;;;;;;-0.25;100.00;99763.44;6215750;23;20205;-80
2023/01/22 04:19:37;;;;;;;14.33;11.67;;;;;;;-0.26;100.00;99768.84;6216637;22;20685;-79
2023/01/22 04:22:04;;;;;;;13.07;11.23;;;;;;;-0.21;100.00;99770.06;6226134;22;20305;-80
2023/01/22 04:24:32;;;;;;;15.13;11.40;;;;;;;-0.20;100.00;99758.56;6216214;23;20205;-80
2023/01/22 04:26:59;;;;;;;13.70;11.40;;;;;;;-0.11;100.00;99762.13;6216308;23;20209;-81
2023/01/22 04:29:26;;;;;;;13.33;10.43;;;;;;;-0.14;100.00;99759.78;6215261;23;20205;-82
2023/01/22 04:31:53;;;;;;;13.90;11.43;;;;;;;-0.25;100.00;99771.34;6215084;23;20220;-80
2023/01/22 04:34:48;;;;;;;13.13;9.90;;;;;;;-0.24;100.00;99774.81;6215601;23;20596;-79
2023/01/22 04:37:21;;;;;;;13.07;11.00;;;;;;;-0.17;100.00;99767.97;6215524;23;20205;-80
2023/01/22 04:39:48;;;;;;;13.33;10.57;;;;;;;-0.22;100.00;99771.03;6215080;23;20541;-80
2023/01/22 04:42:15;;;;;;;13.87;10.93;;;;;;;-0.19;100.00;99777.84;6214749;22;20205;-79
2023/01/22 04:44:41;;;;;;;14.30;10.97;;;;;;;-0.25;100.00;99784.50;6214939;23;20251;-81
2023/01/22 04:47:09;;;;;;;14.43;11.63;;;;;;;-0.25;100.00;99781.88;6215106;23;20216;-79
2023/01/22 04:49:37;;;;;;;14.00;11.07;;;;;;;-0.29;100.00;99780.50;6215700;23;20210;-80
2023/01/22 04:52:07;;;;;;;13.23;10.73;;;;;;;-0.34;100.00;99777.50;6214433;22;20205;-79
2023/01/22 04:54:33;;;;;;;13.17;10.70;;;;;;;-0.22;100.00;99767.56;6216016;23;20233;-80
2023/01/22 04:57:01;;;;;;;12.10;9.77;;;;;;;-0.15;100.00;99777.38;6215239;23;20210;-80
2023/01/22 04:59:28;;;;;;;12.93;10.97;;;;;;;-0.36;100.00;99779.44;6215581;23;20206;-79
2023/01/22 05:01:56;;;;;;;14.40;11.20;;;;;;;-0.33;100.00;99779.16;6215421;23;20216;-80
2023/01/22 05:04:22;;;;;;;12.57;10.37;;;;;;;-0.31;100.00;99795.63;6215418;22;20201;-79
2023/01/22 05:06:49;;;;;;;14.00;11.40;;;;;;;-0.24;100.00;99795.88;6215750;23;20224;-80
2023/01/22 05:09:16;;;;;;;14.03;11.47;;;;;;;-0.28;100.00;99791.88;6215339;23;20666;-80
2023/01/22 05:12:01;;;;;;;14.90;11.57;;;;;;;-0.28;100.00;99799.78;6214672;22;20236;-78
2023/01/22 05:14:32;;;;;;;13.80;11.30;;;;;;;-0.31;100.00;99795.63;6215298;23;20197;-80
2023/01/22 05:17:00;;;;;;;14.73;11.40;;;;;;;-0.32;100.00;99799.22;6192076;23;20190;-80
2023/01/22 05:19:27;;;;;;;14.13;10.50;;;;;;;-0.24;100.00;99799.34;6215229;23;20205;-80
2023/01/22 05:21:54;;;;;;;12.97;10.07;;;;;;;-0.27;100.00;99796.16;6215868;23;20213;-80
2023/01/22 05:24:20;;;;;;;12.73;10.97;;;;;;;-0.40;100.00;99801.75;6215245;22;20213;-80
2023/01/22 05:26:47;;;;;;;12.93;10.33;;;;;;;-0.49;100.00;99808.72;6216040;23;20284;-79
2023/01/22 05:29:24;;;;;;;12.83;10.30;;;;;;;-0.36;100.00;99807.56;6215924;23;20262;-80
2023/01/22 05:32:17;;;;;;;14.40;10.80;;;;;;;-0.29;100.00;99808.66;6193159;22;20208;-80
2023/01/22 05:34:50;;;;;;;13.57;10.60;;;;;;;-0.29;100.00;99806.84;6216624;23;20205;-80
2023/01/22 05:37:17;;;;;;;13.10;10.13;;;;;;;-0.30;100.00;99814.88;6218275;22;20214;-80
2023/01/22 05:39:44;;;;;;;12.10;10.03;;;;;;;-0.30;100.00;99812.25;6216596;23;20224;-80
2023/01/22 05:42:14;;;;;;;13.33;10.67;;;;;;;-0.34;100.00;99819.63;6216573;22;20209;-80
2023/01/22 05:44:43;;;;;;;14.73;10.97;;;;;;;-0.50;100.00;99820.22;6193210;23;20209;-81
2023/01/22 05:47:12;;;;;;;15.77;11.97;;;;;;;-0.52;100.00;99816.94;6192440;23;20233;-79
2023/01/22 05:49:47;;;;;;;15.30;11.50;;;;;;;-0.38;100.00;99825.31;6217598;23;20235;-80
2023/01/22 05:52:15;;;;;;;14.73;11.30;;;;;;;-0.42;100.00;99816.84;6216722;22;20604;-79
2023/01/22 05:54:43;;;;;;;15.47;12.03;;;;;;;-0.52;100.00;99822.19;6217191;23;20311;-80
2023/01/22 05:57:09;;;;;;;15.93;12.47;;;;;;;-0.50;100.00;99822.84;6218245;23;20217;-80
2023/01/22 05:59:37;;;;;;;13.30;11.10;;;;;;;-0.51;100.00;99821.19;6219796;22;20218;-80
2023/01/22 06:02:06;;;;;;;15.20;11.60;;;;;;;-0.46;100.00;99826.84;6193700;22;20210;-80
2023/01/22 06:04:37;;;;;;;14.53;11.60;;;;;;;-0.39;100.00;99819.22;6218240;23;20228;-80
2023/01/22 06:07:13;;;;;;;15.17;12.40;;;;;;;-0.50;100.00;99817.59;6218811;23;20288;-80
2023/01/22 06:09:40;;;;;;;14.30;11.33;;;;;;;-0.50;100.00;99817.59;6218760;23;20209;-80
2023/01/22 06:12:07;;;;;;;14.93;11.40;;;;;;;-0.47;100.00;99822.56;6218692;22;20201;-80
2023/01/22 06:14:34;;;;;;;15.03;11.87;;;;;;;-0.55;100.00;99825.09;6218476;23;20209;-79
2023/01/22 06:17:01;;;;;;;15.03;12.13;;;;;;;-0.53;100.00;99823.16;6219742;23;20288;-80
2023/01/22 06:19:37;;;;;;;16.37;12.37;;;;;;;-0.41;100.00;99833.47;6219776;23;20205;-80
2023/01/22 06:22:04;;;;;;;14.90;11.90;;;;;;;-0.54;100.00;99829.38;6219257;22;20205;-79
2023/01/22 06:24:39;;;;;;;16.63;12.50;;;;;;;-0.58;100.00;99829.81;6219433;23;20205;-80
2023/01/22 06:27:07;;;;;;;14.50;11.70;;;;;;;-0.62;100.00;99833.72;6192637;23;20228;-80
2023/01/22 06:29:41;;;;;;;15.03;11.00;;;;;;;-0.53;100.00;99820.53;6193578;23;20210;-80
2023/01/22 06:32:08;;;;;;;15.80;11.40;;;;;;;-0.48;100.00;99830.63;6198799;22;20209;-81
2023/01/22 06:34:36;;;;;;;14.27;11.10;;;;;;;-0.63;100.00;99829.41;6221287;23;20221;-80
2023/01/22 06:37:03;;;;;;;13.87;11.47;;;;;;;-0.59;100.00;99830.78;6219781;23;20201;-80
2023/01/22 06:39:33;;;;;;;15.60;11.93;;;;;;;-0.53;100.00;99836.31;6198335;23;20654;-81
2023/01/22 06:42:09;;;;;;;13.07;10.57;;;;;;;-0.50;100.00;99840.44;6202872;22;20654;-80
2023/01/22 06:44:36;;;;;;;13.53;10.30;;;;;;;-0.52;100.00;99840.63;6225315;23;20232;-80
2023/01/22 06:47:02;;;;;;;13.27;10.40;;;;;;;-0.45;100.00;99839.06;6226949;23;20213;-81
2023/01/22 06:49:30;;;;;;;13.40;10.60;;;;;;;-0.45;100.00;99833.78;6203058;23;20215;-81
2023/01/22 06:51:56;;;;;;;12.90;10.07;;;;;;;-0.47;100.00;99837.56;6228463;23;20205;-80
2023/01/22 06:54:23;;;;;;;13.83;10.97;;;;;;;-0.46;100.00;99836.56;6227551;22;20208;-80
2023/01/22 06:56:50;;;;;;;15.00;11.03;;;;;;;-0.42;100.00;99840.56;6227950;23;20206;-80
2023/01/22 06:59:20;;;;;;;15.13;11.07;;;;;;;-0.41;100.00;99844.00;6229575;23;20209;-81
2023/01/22 07:01:46;;;;;;;13.70;10.70;;;;;;;-0.37;100.00;99845.41;6230468;22;20221;-81
2023/01/22 07:04:13;;;;;;;15.90;10.97;;;;;;;-0.33;100.00;99849.41;6231243;22;20212;-80
2023/01/22 07:06:40;;;;;;;14.57;10.97;;;;;;;-0.28;100.00;99850.59;6230870;23;20212;-81
2023/01/22 07:09:07;;;;;;;12.30;10.47;;;;;;;-0.26;100.00;99853.09;6232228;22;20276;-81
2023/01/22 07:11:34;;;;;;;13.57;11.27;;;;;;;-0.33;100.00;99850.25;6230344;23;20205;-82
2023/01/22 07:14:00;;;;;;;14.00;11.13;;;;;;;-0.36;100.00;99847.03;6206274;22;20555;-79
2023/01/22 07:16:27;;;;;;;15.50;11.77;;;;;;;-0.32;100.00;99848.41;6236162;22;20206;-82
2023/01/22 07:18:54;;;;;;;14.17;11.50;;;;;;;-0.21;100.00;99850.88;6210536;23;20217;-81
2023/01/22 07:21:20;;;;;;;13.83;10.87;;;;;;;-0.21;100.00;99851.69;6235660;23;20209;-81
2023/01/22 07:23:47;;;;;;;14.07;10.80;;;;;;;-0.21;100.00;99853.50;6236268;23;20528;-81
2023/01/22 07:26:15;;;;;;;13.70;10.80;;;;;;;-0.22;100.00;99857.94;6235879;22;20240;-80
2023/01/22 07:28:43;;;;;;;12.97;10.30;;;;;;;-0.29;100.00;99859.50;6236542;23;20240;-81
2023/01/22 07:31:12;;;;;;;13.00;10.67;;;;;;;-0.28;100.00;99858.50;6235928;23;20209;-81
2023/01/22 07:33:39;;;;;;;13.27;9.90;;;;;;;-0.22;100.00;99865.84;6238234;23;20213;-81
2023/01/22 07:36:08;;;;;;;12.03;9.53;;;;;;;-0.27;100.00;99862.81;6236098;22;20210;-80
2023/01/22 07:38:35;;;;;;;13.63;10.67;;;;;;;-0.23;100.00;99873.88;6213374;23;20205;-82
2023/01/22 07:41:04;;;;;;;13.40;10.30;;;;;;;-0.24;100.00;99873.06;6212224;23;20225;-81
2023/01/22 07:43:52;;;;;;;12.87;9.77;;;;;;;-0.24;100.00;99867.81;6239590;22;20213;-82
2023/01/22 07:46:19;;;;;;;12.87;10.50;;;;;;;-0.30;100.00;99867.53;6236750;22;20208;-81
2023/01/22 07:48:46;;;;;;;12.97;9.87;;;;;;;-0.24;100.00;99878.34;6210289;23;20217;-81
2023/01/22 07:51:13;;;;;;;11.30;9.63;;;;;;;-0.30;100.00;99876.28;6212482;23;20228;-81
2023/01/22 07:53:41;;;;;;;11.80;9.53;;;;;;;-0.27;100.00;99872.50;6213326;23;20232;-81
2023/01/22 07:56:08;;;;;;;12.50;9.83;;;;;;;-0.23;100.00;99887.88;6262309;22;20236;-80
2023/01/22 07:58:36;;;;;;;12.07;9.87;;;;;;;-0.25;100.00;99889.00;6240114;22;20213;-82
2023/01/22 08:01:06;;;;;;;11.93;9.93;;;;;;;-0.29;100.00;99877.94;6189948;23;20257;-82
2023/01/22 08:03:36;;;;;;;11.40;9.10;;;;;;;-0.19;100.00;99885.81;6215032;23;20194;-81
2023/01/22 08:06:09;;;;;;;12.83;10.03;;;;;;;-0.31;100.00;99887.78;6194874;22;20223;-81
2023/01/22 08:08:37;;;;;;;12.20;8.80;;;;;;;-0.24;100.00;99883.59;6217632;23;20244;-81
2023/01/22 08:11:05;;;;;;;11.83;9.67;;;;;;;-0.08;100.00;99893.50;6217824;22;20220;-81
2023/01/22 08:13:33;;;;;;;12.30;9.47;;;;;;;-0.22;100.00;99884.28;6241180;23;20241;-81
2023/01/22 08:16:03;;;;;;;14.67;10.00;;;;;;;-0.14;100.00;99896.72;6210475;22;20216;-81
2023/01/22 08:18:31;;;;;;;12.33;9.23;;;;;;;-0.10;100.00;99896.31;6240564;23;20193;-81
2023/01/22 08:21:00;;;;;;;11.20;8.73;;;;;;;-0.01;100.00;99900.69;6190802;23;20197;-82
2023/01/22 08:23:29;;;;;;;10.67;9.07;;;;;;;-0.05;100.00;99906.41;6217808;23;20181;-81
2023/01/22 08:26:07;;;;;;;11.33;8.77;;;;;;;0.05;100.00;99909.78;6214880;22;20272;-81
2023/01/22 08:28:40;;;;;;;9.80;8.27;;;;;;;-0.04;100.00;99913.31;6242747;23;20197;-81
2023/01/22 08:31:07;;;;;;;9.87;8.07;;;;;;;-0.05;100.00;99899.28;6232472;23;20215;-82
2023/01/22 08:33:58;;;;;;;9.17;7.47;;;;;;;0.13;100.00;99911.72;6238047;22;20201;-81
2023/01/22 08:36:34;;;;;;;11.10;8.77;;;;;;;-0.05;100.00;99901.94;6241623;23;20200;-82
2023/01/22 08:39:02;;;;;;;10.97;8.77;;;;;;;0.08;100.00;99914.78;6243489;23;20205;-81
2023/01/22 08:41:31;;;;;;;10.63;8.17;;;;;;;0.04;100.00;99916.06;6241554;23;20185;-82
2023/01/22 08:44:01;;;;;;;10.17;7.90;;;;;;;-0.02;100.00;99924.53;6215665;23;20241;-82
2023/01/22 08:46:29;;;;;;;9.67;7.83;;;;;;;-0.13;100.00;99928.16;6214438;23;20200;-81
2023/01/22 08:48:57;;;;;;;10.47;8.33;;;;;;;0.01;100.00;99921.59;6241716;23;20208;-81
2023/01/22 08:51:26;;;;;;;10.57;8.00;;;;;;;0.01;100.00;99926.88;6201841;23;20201;-82
2023/01/22 08:54:08;;;;;;;12.10;8.70;;;;;;;0.19;100.00;99932.19;6200912;23;20212;-81
2023/01/22 18:56:48;;;;;;;13.27;11.87;;;;;;;0.48;100.00;100367.03;6245313;23;20211;-80
2023/01/22 18:59:16;;;;;;;13.47;11.73;;;;;;;0.51;100.00;100375.53;6229087;23;20257;-80
2023/01/22 19:01:49;;;;;;;13.77;11.47;;;;;;;0.48;100.00;100372.31;6207548;23;20776;-81
2023/01/22 19:04:20;;;;;;;13.00;11.20;;;;;;;0.52;100.00;100373.72;6201701;23;20279;-81
2023/01/22 19:06:52;;;;;;;13.03;11.17;;;;;;;0.49;100.00;100374.84;6181148;23;20212;-81
2023/01/22 19:09:19;;;;;;;12.10;10.77;;;;;;;0.50;100.00;100380.94;6229215;23;20327;-80
2023/01/22 19:11:47;;;;;;;14.97;12.23;;;;;;;0.48;100.00;100394.25;6209687;23;20213;-80
2023/01/22 19:14:17;;;;;;;13.60;11.87;;;;;;;0.47;100.00;100389.13;6203798;23;20232;-79
2023/01/22 19:16:47;;;;;;;13.23;11.70;;;;;;;0.53;100.00;100393.84;6207166;23;20229;-81
2023/01/22 19:19:14;;;;;;;13.40;11.47;;;;;;;0.51;100.00;100383.44;6234038;23;20205;-80
2023/01/22 19:21:46;;;;;;;13.83;11.73;;;;;;;0.52;100.00;100381.63;6205173;23;20681;-80
2023/01/22 19:24:16;;;;;;;13.40;11.80;;;;;;;0.57;100.00;100390.78;6231754;23;20216;-81
2023/01/22 19:26:43;;;;;;;13.33;11.43;;;;;;;0.49;100.00;100366.91;6182594;23;20257;-80
2023/01/22 19:29:16;;;;;;;13.30;10.70;;;;;;;0.62;100.00;100369.28;6230692;23;20260;-80
2023/01/22 19:31:47;;;;;;;12.77;10.87;;;;;;;0.62;100.00;100374.56;6198798;23;20681;-80
2023/01/22 19:34:21;;;;;;;12.83;10.93;;;;;;;0.50;100.00;100394.13;6227396;23;20205;-79
2023/01/22 19:36:51;;;;;;;12.20;10.47;;;;;;;0.59;100.00;100385.38;6226377;23;20209;-80
2023/01/22 19:39:22;;;;;;;12.17;10.60;;;;;;;0.63;100.00;100369.16;6233704;23;20216;-81
2023/01/22 19:41:48;;;;;;;11.37;10.00;;;;;;;0.63;100.00;100378.88;6230175;23;20213;-80
2023/01/22 19:44:15;;;;;;;12.13;10.20;;;;;;;0.57;100.00;100395.22;6228691;23;20216;-80
2023/01/22 19:46:42;;;;;;;12.37;10.37;;;;;;;0.57;100.00;100398.69;6228259;23;20219;-79
2023/01/22 19:49:11;;;;;;;12.60;9.97;;;;;;;0.51;100.00;100398.44;6257188;22;20267;-79
2023/01/22 19:51:38;;;;;;;11.70;10.10;;;;;;;0.59;100.00;100391.50;6293243;22;20269;-80
2023/01/22 19:54:08;;;;;;;13.20;10.77;;;;;;;0.70;100.00;100407.19;6256622;22;20203;-82
2023/01/22 19:56:53;;;;;;;13.27;10.47;;;;;;;0.74;100.00;100427.06;6267475;23;20248;-80
2023/01/22 19:59:24;;;;;;;11.50;9.73;;;;;;;0.57;100.00;100445.34;6221799;23;20276;-80
2023/01/22 20:01:53;;;;;;;20.37;14.93;;;;;;;0.59;100.00;100457.44;6245559;23;20311;-79
2023/01/22 20:04:27;;;;;;;15.07;12.30;;;;;;;0.59;100.00;100460.06;6246368;23;20277;-80
2023/01/22 20:07:01;;;;;;;15.17;12.57;;;;;;;0.55;100.00;100463.94;6245660;23;20184;-80
2023/01/22 20:09:34;;;;;;;17.17;13.43;;;;;;;0.50;100.00;100470.59;6218450;23;20204;-80
2023/01/22 20:12:04;;;;;;;16.93;13.57;;;;;;;0.51;100.00;100465.19;6193272;23;20223;-80
2023/01/22 20:14:37;;;;;;;15.80;13.53;;;;;;;0.54;100.00;100464.91;6219277;23;20209;-80
2023/01/22 20:17:15;;;;;;;16.97;13.83;;;;;;;0.67;100.00;100460.22;6200230;23;20204;-80
2023/01/22 20:19:42;;;;;;;17.70;14.30;;;;;;;0.58;100.00;100463.66;6240098;22;20258;-80
2023/01/22 20:22:17;;;;;;;15.37;13.23;;;;;;;0.49;100.00;100458.38;6221055;22;20192;-80
2023/01/22 20:24:47;;;;;;;14.53;12.83;;;;;;;0.35;100.00;100454.31;6252568;22;20169;-81
2023/01/22 20:27:17;;;;;;;13.90;11.73;;;;;;;0.42;100.00;100461.53;6275588;22;20238;-80
2023/01/22 20:29:45;;;;;;;16.40;13.73;;;;;;;0.32;100.00;100451.94;6246190;22;20204;-80
2023/01/22 20:32:14;;;;;;;15.57;12.60;;;;;;;0.23;100.00;100450.97;6297981;22;20211;-80
2023/01/22 20:34:47;;;;;;;43.37;32.07;;;;;;;0.34;100.00;100465.81;6236066;22;20208;-80
2023/01/22 20:37:15;;;;;;;51.17;37.27;;;;;;;0.31;100.00;100474.00;6245681;22;20204;-80
2023/01/22 20:39:43;;;;;;;37.50;28.00;;;;;;;0.25;100.00;100464.81;6239980;23;20209;-80
2023/01/22 20:42:10;;;;;;;43.80;31.50;;;;;;;0.43;100.00;100460.56;6267711;23;20204;-80
2023/01/22 20:44:43;;;;;;;35.60;26.80;;;;;;;0.49;100.00;100448.66;6245772;23;20212;-80
2023/01/22 20:47:12;;;;;;;20.23;16.30;;;;;;;0.71;100.00;100453.69;6221398;23;20193;-80
2023/01/22 20:49:41;;;;;;;18.67;15.50;;;;;;;0.43;100.00;100457.09;6241421;23;20209;-80
2023/01/22 20:52:08;;;;;;;25.20;21.30;;;;;;;0.50;100.00;100460.88;6236714;23;20231;-80
2023/01/22 20:54:36;;;;;;;19.77;17.70;;;;;;;0.49;100.00;100446.03;6214953;23;20208;-80
2023/01/22 20:57:24;;;;;;;17.53;13.90;;;;;;;0.50;100.00;100442.41;6240232;23;20231;-80
2023/01/22 20:59:51;;;;;;;15.13;13.00;;;;;;;0.58;100.00;100437.28;6210870;23;20220;-80
2023/01/22 21:02:19;;;;;;;16.40;13.30;;;;;;;0.43;100.00;100442.13;6261686;23;20216;-79
2023/01/22 21:04:50;;;;;;;14.93;12.47;;;;;;;0.43;100.00;100441.28;6211585;23;20288;-79
2023/01/22 21:07:18;;;;;;;16.40;12.23;;;;;;;0.46;100.00;100448.09;6196754;23;20201;-79
2023/01/22 21:09:45;;;;;;;15.20;12.70;;;;;;;0.39;100.00;100455.69;6182859;23;20214;-80
2023/01/22 21:12:12;;;;;;;14.17;11.43;;;;;;;0.43;100.00;100457.94;6207931;23;20189;-79
2023/01/22 21:14:40;;;;;;;15.17;12.50;;;;;;;0.37;100.00;100468.19;6206245;23;20233;-79
2023/01/22 21:17:07;;;;;;;15.97;12.63;;;;;;;0.46;100.00;100472.66;6178393;23;20209;-80
2023/01/22 21:19:34;;;;;;;15.80;12.57;;;;;;;0.34;100.00;100471.09;6203319;23;20213;-80
2023/01/22 21:22:02;;;;;;;15.60;12.67;;;;;;;0.48;100.00;100469.88;6178397;23;20209;-80
2023/01/22 21:24:30;;;;;;;15.73;12.33;;;;;;;0.45;100.00;100468.34;6178879;23;20201;-79
2023/01/22 21:26:57;;;;;;;15.70;12.30;;;;;;;0.49;100.00;100479.47;6241073;23;20204;-79
2023/01/22 21:29:23;;;;;;;16.27;12.20;;;;;;;0.42;100.00;100479.19;6216263;23;20221;-80
2023/01/22 21:31:51;;;;;;;15.70;12.63;;;;;;;0.32;100.00;100483.59;6252417;23;20221;-79